Weather observations for the past three days for
Sisseton, Sisseton Municipal Airport
Imperial (Metric)
Date Time (cdt) Wind (mph) Vis. (mi.) Weather Sky Cond. Temperature (ºF) Relative Humidity Wind Chill (°F) Heat Index (°F) Pressure Precipitation (in)
Air Dwpt 6 hour altimeter (in) sea level (mb) 1 hr 3 hr 6 hr
Max. Min.
05 17:56 S 9 0.00 NULL NULL 86 66.9 53% 89 29.91 1010.9
05 16:56 SE 13 G 20 0.00 NULL NULL 86 66 51% 88 29.9 1010.5
05 15:56 SE 12 G 18 0.00 NULL NULL 84.9 66 53% 87 29.93 1011.4
05 14:56 E 12 0.00 NULL NULL 82.9 66.9 59% 86 29.94 1012.0
05 12:56 E 9 0.00 NULL NULL 80.1 68 80.1 66 67% 83 29.96 1012.4
05 11:56 SE 10 0.00 NULL NULL 75.9 66 72% 77 29.98 1013.3
05 10:56 E 8 0.00 NULL NULL 71.1 66 84% 29.99 1014.0
05 09:56 E 7 0.00 NULL NULL 69.1 66 90% 29.99 1014.0
05 08:56 SE 8 0.00 NULL NULL 68 66 93% 29.97 1013.6
05 07:56 SE 8 0.00 NULL NULL 66.9 64.9 93% 29.96 1013.0
05 06:56 SE 8 0.00 NULL NULL 66.9 64.9 72 66.9 93% 29.94 1012.0
05 05:56 SE 7 0.00 NULL NULL 66.9 66 97% 29.96 1012.8
05 04:56 SE 8 0.00 NULL NULL 68 66.9 96% 29.95 1012.4
05 03:56 SE 8 0.00 NULL NULL 68 66 93% 29.94 1011.8
05 02:56 SE 9 0.00 NULL NULL 69.1 66.9 93% 29.94 1011.7
05 01:56 Calm 0.00 NULL NULL 70 68 93% 29.96 1012.5
05 00:56 SE 10 0.00 NULL NULL 72 69.1 78.1 69.1 91% 29.94 1011.9
04 23:56 E 5 0.00 NULL NULL 71.1 69.1 94% 29.95 1012.7
04 22:56 S 6 0.00 NULL NULL 70 69.1 97% 29.95 1012.9
04 21:56 E 3 0.00 NULL NULL 71.1 69.1 94% 29.94 1012.5
04 20:56 Calm 0.00 NULL NULL 71.1 70 96% 29.92 1012.1
04 19:56 SE 5 0.00 NULL NULL 73 70 90% 29.91 1011.4
04 18:56 S 5 0.00 NULL NULL 78.1 71.1 82.9 75.9 79% 80 29.9 1011.0
04 17:56 SE 6 0.00 NULL NULL 81 71.1 72% 85 29.91 1011.2
04 16:56 SE 7 0.00 NULL NULL 82 70 67% 86 29.91 1011.1
04 15:56 E 6 0.00 NULL NULL 82.9 69.1 63% 87 29.91 1011.1
04 14:56 SE 7 0.00 NULL NULL 82 70 67% 86 29.92 1011.5
04 13:56 E 6 0.00 NULL NULL 81 69.1 67% 84 29.93 1011.6
04 12:56 E 5 0.00 NULL NULL 75.9 68 75.9 62.1 77% 77 29.93 1012.0
04 11:56 NE 6 0.00 NULL NULL 68 66.9 96% 29.94 1012.4
04 10:56 Calm 0.00 NULL NULL 66 64.9 96% 29.93 1012.2
04 09:56 N 6 0.00 NULL NULL 64 63 96% 29.92 1011.9
04 08:56 NW 9 0.00 NULL NULL 62.1 61 96% 29.91 1011.5
04 07:56 N 9 0.00 NULL NULL 62.1 62.1 100% 29.89 1010.6
04 06:56 N 8 0.00 NULL NULL 62.1 62.1 66.9 60.1 100% 29.87 1009.6
04 05:56 NW 6 0.00 NULL NULL 60.1 59 96% 29.86 1009.2
04 04:56 NW 7 0.00 NULL NULL 61 60.1 97% 29.85 1008.8
04 03:56 W 7 0.00 NULL NULL 62.1 61 96% 29.84 1008.2
04 02:56 NW 9 0.00 NULL NULL 63 62.1 97% 29.82 1007.7
04 01:56 NW 9 0.00 NULL NULL 64 63 96% 29.82 1007.8
04 00:56 NW 14 0.00 NULL NULL 66.9 64 90 66.9 91% 29.8 1007.1
03 23:56 NW 7 0.00 NULL NULL 69.1 64.9 87% 29.76 1005.8
03 22:56 NW 9 0.00 NULL NULL 70 64.9 84% 29.75 1005.7
03 21:56 NW 8 0.00 NULL NULL 72 66 82% 29.75 1005.7
03 20:56 NW 12 0.00 NULL NULL 75 66.9 76% 76 29.72 1004.6
03 19:56 W 9 0.00 NULL NULL 82.9 68 61% 86 29.69 1003.5
03 18:56 SW 5 0.00 NULL NULL 91 66.9 93 84 45% 94 29.68 1002.9
03 17:56 SE 6 0.00 NULL NULL 91.9 72 52% 100 29.66 1002.4
03 16:56 SE 10 0.00 NULL NULL 91.9 72 52% 100 29.66 1002.2
03 15:56 SE 12 0.00 NULL NULL 91 72 54% 99 29.66 1002.4
03 14:56 S 12 0.00 NULL NULL 90 72 56% 97 29.67 1002.5
03 13:56 SE 10 G 17 0.00 NULL NULL 87.1 72 61% 94 29.68 1002.8
03 11:56 S 8 0.00 NULL NULL 78.1 70 76% 80 29.72 1004.5
03 10:56 SE 9 0.00 NULL NULL 73 69.1 87% 29.73 1005.0
03 09:56 S 10 0.00 NULL NULL 71.1 68 90% 29.76 1006.0
03 08:56 S 5 0.00 NULL NULL 70 66 87% 29.74 1005.6
03 07:56 SE 3 0.00 NULL NULL 64.9 63 93% 29.75 1005.9
03 06:56 Calm 0.00 NULL NULL 60.1 60.1 70 59 100% 29.76 1006.3
03 05:56 E 3 0.00 NULL NULL 61 60.1 97% 29.77 1006.2
03 04:56 SE 6 0.00 NULL NULL 61 60.1 97% 29.77 1006.5
03 03:56 Calm 0.00 NULL NULL 63 61 93% 29.78 1006.9
03 02:56 Calm 0.00 NULL NULL 66 62.1 87% 29.79 1007.0
03 01:56 SE 5 0.00 NULL NULL 69.1 64 84% 29.81 1007.6
03 00:56 Calm 0.00 NULL NULL 70 63 78.1 68 79% 29.82 1007.9
02 23:56 E 5 0.00 NULL NULL 69.1 63 81% 29.82 1008.1
02 22:56 E 3 0.00 NULL NULL 69.1 63 81% 29.84 1008.7
02 21:56 NE 3 0.00 NULL NULL 71.1 63 76% 29.84 1008.9
02 20:56 E 5 0.00 NULL NULL 71.1 63 76% 29.83 1008.8
02 19:56 E 5 0.00 NULL NULL 73 64 74% 29.82 1008.6
02 18:56 E 6 0.00 NULL NULL 79 62.1 82.9 78.1 56% 80 29.83 1008.5
Date Time (cdt) Wind (mph) Vis. (mi.) Weather Sky Cond. Air Dwpt Max. Min. Relative Humidity Wind Chill (°F) Heat Index (°F) altimeter (in) sea level (mb) 1 hr 3 hr 6 hr
6 hour
Temperature (ºF) Pressure Precipitation (in)